Flight Track Log - Related Links

Times and Time Zones

All times are in EST time to prevent confusion due to time zone crossing. See the EJA388 flight status page for this flight to view local times or setup timezone preferences in your user account.

Time Position Orientation Groundspeed Altitude Reporting Facility
EST Latitude Longitude Course Direction KTS MPH feet Rate Location/Type
Sun 11:04:48 AM 25.6425 -80.4128 93° East 161 185 900  Level Miami Center
Sun 11:05:56 AM 25.6397 -80.3483 93° East 203 234 2,000 1,070 Climbing Miami Center
Sun 11:06:57 AM 25.5983 -80.3286 157° South 225 259 3,200 2,638 Climbing Miami Center
Sun 11:07:52 AM 25.5700 -80.3831 240° Southwest 236 272 7,100 3,805 Climbing Miami Center
Sun 11:09:00 AM 25.5997 -80.4439 298° West 247 284 11,000 2,830 Climbing Miami Center
Sun 11:09:38 AM 25.6561 -80.4525 352° North 303 349 12,100 2,204 Climbing Miami Center
Sun 11:10:38 AM 25.7456 -80.4597 356° North 328 377 14,600 1,900 Climbing Miami Center
Sun 11:11:38 AM 25.8414 -80.4742 352° North 338 389 15,900 1,500 Climbing Miami Center
Sun 11:12:38 AM 25.9256 -80.5367 326° Northwest 344 396 17,600 1,900 Climbing Miami Center
Sun 11:13:38 AM 26.0050 -80.6086 321° Northwest 350 403 19,700 1,900 Climbing Miami Center
Sun 11:14:38 AM 26.0869 -80.6783 323° Northwest 367 422 21,400 1,650 Climbing Miami Center
Sun 11:15:38 AM 26.1725 -80.7550 321° Northwest 384 442 23,000 1,650 Climbing Miami Center
Sun 11:16:38 AM 26.2461 -80.8200 322° Northwest 389 448 24,700 1,750 Climbing Miami Center
Sun 11:17:38 AM 26.3397 -80.9042 321° Northwest 389 448 26,500 1,650 Climbing Miami Center
Sun 11:18:38 AM 26.4194 -80.9694 324° Northwest 394 453 28,000 1,600 Climbing Miami Center
Sun 11:19:38 AM 26.5172 -81.0542 322° Northwest 399 459 29,700 1,650 Climbing Miami Center
Sun 11:20:38 AM 26.6122 -81.0878 342° North 393 452 31,300 1,650 Climbing Miami Center
Sun 11:21:38 AM 26.7303 -81.1222 345° North 400 460 33,000 1,800 Climbing Miami Center
Sun 11:22:38 AM 26.8358 -81.1539 345° North 393 452 34,900 1,850 Climbing Miami Center
Sun 11:23:38 AM 26.9242 -81.2014 334° Northwest 372 428 36,700 1,400 Climbing Miami Center
Sun 11:24:38 AM 26.9672 -81.2939 298° West 329 379 37,700 950 Climbing Miami Center
Sun 11:25:38 AM 26.9958 -81.3858 289° West 334 384 38,600 1,000 Climbing Miami Center
Sun 11:26:38 AM 27.0300 -81.4967 289° West 339 390 39,700 1,000 Climbing Miami Center
Sun 11:27:38 AM 27.0600 -81.5958 289° West 339 390 40,600 700 Climbing Miami Center
Sun 11:28:38 AM 27.0881 -81.6928 288° West 332 382 41,100 500 Climbing Miami Center
Sun 11:29:38 AM 27.1144 -81.7825 288° West 332 382 41,600 500 Climbing Miami Center
Sun 11:30:38 AM 27.1442 -81.8839 288° West 332 382 42,100 500 Climbing Miami Center
Sun 11:31:38 AM 27.1781 -81.9928 289° West 332 382 42,600 450 Climbing Miami Center
Sun 11:32:38 AM 27.2058 -82.0919 288° West 332 382 43,000 200 Climbing Miami Center
Sun 11:33:38 AM 27.2356 -82.1939 288° West 337 388 43,000  Level Miami Center
Sun 11:34:38 AM 27.2633 -82.2886 288° West 344 396 43,000  Level Miami Center
Sun 11:35:38 AM 27.2928 -82.3903 288° West 349 402 43,000  Level Miami Center
Sun 11:36:38 AM 27.3258 -82.5086 287° West 354 407 43,000  Level Miami Center
Sun 11:37:38 AM 27.3592 -82.6156 289° West 354 407 43,000  Level Miami Center
Sun 11:38:38 AM 27.3861 -82.7197 286° West 359 413 43,000  Level Miami Center
Sun 11:39:38 AM 27.4133 -82.8192 287° West 359 413 43,000  Level Miami Center
Sun 11:40:38 AM 27.4503 -82.9381 289° West 369 425 43,000  Level Miami Center
Sun 11:41:38 AM 27.4831 -83.0497 288° West 369 425 43,000  Level Miami Center
Sun 11:42:38 AM 27.5097 -83.1542 286° West 364 419 43,000  Level Miami Center
Sun 11:43:38 AM 27.5372 -83.2397 290° West 364 419 43,000  Level Miami Center
Sun 11:44:38 AM 27.5675 -83.3561 286° West 364 419 43,000  Level Miami Center
Sun 11:45:38 AM 27.5981 -83.4633 288° West 364 419 43,000  Level Miami Center
Sun 11:46:38 AM 27.6247 -83.5656 286° West 359 413 43,000  Level Miami Center
Sun 11:47:38 AM 27.6614 -83.6706 292° West 359 413 43,000  Level Miami Center
Sun 11:48:38 AM 27.6858 -83.7728 285° West 354 407 43,000  Level Miami Center
Sun 11:49:38 AM 27.7161 -83.8778 288° West 354 407 43,000  Level Miami Center
Sun 11:51:18 AM 27.7692 -84.0581 288° West 362 417 43,000  Level Jacksonville Center
Sun 11:52:18 AM 27.7953 -84.1639 286° West 362 417 43,000  Level Jacksonville Center
Sun 11:53:18 AM 27.8233 -84.2675 287° West 356 410 43,000  Level Jacksonville Center
Sun 11:54:18 AM 27.8536 -84.3714 288° West 356 410 43,000  Level Jacksonville Center
Sun 11:55:17 AM 27.8772 -84.4794 284° West 361 415 43,000  Level Jacksonville Center
Sun 11:56:18 AM 27.9011 -84.5692 287° West 355 409 43,000  Level Jacksonville Center
Sun 11:57:17 AM 27.9353 -84.6756 290° West 349 402 43,000  Level Jacksonville Center
Sun 11:58:18 AM 27.9606 -84.7911 284° West 349 402 43,000  Level Jacksonville Center
Sun 11:59:18 AM 27.9925 -84.8903 290° West 349 402 43,000  Level Jacksonville Center
Sun 12:00:18 PM 28.0181 -84.9989 285° West 349 402 43,000  Level Jacksonville Center
Sun 12:01:18 PM 28.0453 -85.1053 286° West 349 402 43,000  Level Jacksonville Center
Sun 12:02:17 PM 28.0747 -85.2142 287° West 349 402 43,000  Level Jacksonville Center
Sun 12:03:18 PM 28.1022 -85.3114 288° West 343 395 43,000  Level Jacksonville Center
Sun 12:04:17 PM 28.1314 -85.4250 286° West 348 400 43,000  Level Jacksonville Center
Sun 12:05:17 PM 28.1583 -85.5269 287° West 348 400 43,000  Level Jacksonville Center
Sun 12:06:18 PM 28.1875 -85.6358 287° West 359 413 43,000  Level Jacksonville Center
Sun 12:07:18 PM 28.2164 -85.7428 287° West 359 413 43,000  Level Jacksonville Center
Sun 12:08:17 PM 28.2453 -85.8519 287° West 359 413 43,000  Level Jacksonville Center
Sun 12:09:18 PM 28.2739 -85.9611 287° West 364 419 43,000  Level Jacksonville Center
Sun 12:10:17 PM 28.3006 -86.0656 286° West 358 412 43,000  Level Jacksonville Center
Sun 12:11:18 PM 28.3292 -86.1725 287° West 358 412 43,000  Level Jacksonville Center
Sun 12:12:18 PM 28.3558 -86.2794 286° West 358 412 43,000  Level Jacksonville Center
Sun 12:13:17 PM 28.3861 -86.3867 288° West 358 412 43,000  Level Jacksonville Center
Sun 12:14:17 PM 28.4125 -86.4961 285° West 358 412 43,000  Level Jacksonville Center
Sun 12:15:18 PM 28.4386 -86.5986 286° West 358 412 43,000  Level Jacksonville Center
Sun 12:16:18 PM 28.4667 -86.7083 286° West 358 412 43,000  Level Jacksonville Center
Sun 12:17:18 PM 28.4928 -86.8156 286° West 363 418 43,000  Level Jacksonville Center
Sun 12:18:18 PM 28.5208 -86.9228 287° West 358 412 43,000  Level Jacksonville Center
Sun 12:19:18 PM 28.5425 -87.0231 284° West 353 406 43,000  Level Jacksonville Center
Sun 12:20:18 PM 28.5744 -87.1353 288° West 359 413 43,000  Level Jacksonville Center
Sun 12:20:58 PM 28.5894 -87.1969 285° West 352 405 43,000  Level Houston Center
Sun 12:22:00 PM 28.6161 -87.3036 286° West 352 405 43,000  Level Houston Center
Sun 12:23:02 PM 28.6425 -87.4108 286° West 352 405 43,000  Level Houston Center
Sun 12:24:05 PM 28.6697 -87.5183 286° West 353 406 43,000  Level Houston Center
Sun 12:25:07 PM 28.7011 -87.6481 285° West 353 406 43,000  Level Houston Center
Sun 12:26:09 PM 28.7267 -87.7561 285° West 353 406 43,000  Level Houston Center
Sun 12:27:11 PM 28.7536 -87.8622 286° West 351 404 43,000  Level Houston Center
Sun 12:28:13 PM 28.7792 -87.9703 285° West 354 407 43,000  Level Houston Center
Sun 12:29:15 PM 28.8058 -88.0786 286° West 355 409 43,000  Level Houston Center
Sun 12:30:17 PM 28.8350 -88.2044 285° West 355 409 43,000  Level Houston Center
Sun 12:31:19 PM 28.8614 -88.3108 286° West 352 405 43,000  Level Houston Center
Sun 12:32:21 PM 28.8875 -88.4206 285° West 355 409 43,000  Level Houston Center
Sun 12:33:23 PM 28.9128 -88.5297 285° West 357 411 43,000  Level Houston Center
Sun 12:34:26 PM 28.9392 -88.6392 285° West 357 411 43,000  Level Houston Center
Sun 12:35:28 PM 28.9697 -88.7717 285° West 359 413 43,000  Level Houston Center
Sun 12:36:30 PM 28.9956 -88.8808 285° West 358 412 43,000  Level Houston Center
Sun 12:37:32 PM 29.0214 -88.9906 285° West 358 412 43,000  Level Houston Center
Sun 12:38:34 PM 29.0464 -89.1000 285° West 358 412 43,000  Level Houston Center
Sun 12:39:36 PM 29.0714 -89.2100 285° West 357 411 43,000  Level Houston Center
Sun 12:40:38 PM 29.0972 -89.3197 285° West 357 411 43,000  Level Houston Center
Sun 12:41:40 PM 29.1272 -89.4506 285° West 355 409 43,000  Level Houston Center
Sun 12:42:43 PM 29.1528 -89.5606 285° West 357 411 43,000  Level Houston Center
Sun 12:43:45 PM 29.1767 -89.6717 284° West 359 413 43,000  Level Houston Center
Sun 12:44:47 PM 29.2022 -89.7814 285° West 358 412 43,000  Level Houston Center
Sun 12:45:49 PM 29.2269 -89.8911 285° West 357 411 43,000  Level Houston Center
Sun 12:46:51 PM 29.2514 -90.0011 284° West 357 411 43,000  Level Houston Center
Sun 12:47:53 PM 29.2769 -90.1114 285° West 357 411 43,000  Level Houston Center
Sun 12:48:55 PM 29.3058 -90.2436 284° West 357 411 43,000  Level Houston Center
Sun 12:49:57 PM 29.3306 -90.3544 284° West 358 412 43,000  Level Houston Center
Sun 12:51:00 PM 29.3558 -90.4647 285° West 358 412 43,000  Level Houston Center
Sun 12:52:02 PM 29.3794 -90.5739 284° West 355 409 43,000  Level Houston Center
Sun 12:53:04 PM 29.4028 -90.6850 284° West 359 413 43,000  Level Houston Center
Sun 12:54:06 PM 29.4281 -90.7939 285° West 355 409 43,000  Level Houston Center
Sun 12:55:08 PM 29.4561 -90.9253 284° West 354 407 43,000  Level Houston Center
Sun 12:56:10 PM 29.4794 -91.0344 284° West 351 404 43,000  Level Houston Center
Sun 12:57:12 PM 29.5033 -91.1436 284° West 352 405 43,000  Level Houston Center
Sun 12:58:14 PM 29.5269 -91.2525 284° West 352 405 43,000  Level Houston Center
Sun 12:59:16 PM 29.5497 -91.3606 284° West 350 403 43,000  Level Houston Center
Sun 01:00:19 PM 29.5736 -91.4694 284° West 350 403 43,000  Level Houston Center
Sun 01:01:21 PM 29.6003 -91.6003 283° West 350 403 43,000  Level Houston Center
Sun 01:02:23 PM 29.6242 -91.7097 284° West 353 406 43,000  Level Houston Center
Sun 01:03:25 PM 29.6464 -91.8169 283° West 349 402 43,000  Level Houston Center
Sun 01:04:27 PM 29.6681 -91.9278 283° West 353 406 43,000  Level Houston Center
Sun 01:05:29 PM 29.6914 -92.0356 284° West 350 403 43,000  Level Houston Center
Sun 01:06:31 PM 29.7139 -92.1439 283° West 349 402 43,000  Level Houston Center
Sun 01:07:33 PM 29.7411 -92.2722 284° West 346 398 43,000  Level Houston Center
Sun 01:08:36 PM 29.7633 -92.3806 283° West 347 399 43,000  Level Houston Center
Sun 01:09:38 PM 29.7850 -92.4894 283° West 349 402 43,000  Level Houston Center
Sun 01:10:40 PM 29.8069 -92.5978 283° West 348 400 43,000  Level Houston Center
Sun 01:11:42 PM 29.8294 -92.7053 284° West 347 399 43,000  Level Houston Center
Sun 01:12:44 PM 29.8558 -92.8356 283° West 348 400 43,000  Level Houston Center
Sun 01:13:46 PM 29.8772 -92.9453 283° West 352 405 43,000  Level Houston Center
Sun 01:14:48 PM 29.8992 -93.0544 283° West 351 404 43,000  Level Houston Center
Sun 01:15:50 PM 29.9206 -93.1639 283° West 351 404 43,000  Level Houston Center
Sun 01:16:52 PM 29.9431 -93.2736 283° West 352 405 43,000  Level Houston Center
Sun 01:17:55 PM 29.9647 -93.3833 283° West 351 404 43,000  Level Houston Center
Sun 01:18:57 PM 29.9861 -93.4944 283° West 353 406 43,000  Level Houston Center
Sun 01:19:59 PM 30.0119 -93.6283 283° West 353 406 43,000  Level Houston Center
Sun 01:21:01 PM 30.0336 -93.7394 283° West 354 407 43,000  Level Houston Center
Sun 01:22:03 PM 30.0547 -93.8503 282° West 353 406 43,000  Level Houston Center
Sun 01:23:05 PM 30.0775 -93.9606 283° West 351 404 43,000  Level Houston Center
Sun 01:24:07 PM 30.0983 -94.0700 282° West 350 403 43,000  Level Houston Center
Sun 01:25:09 PM 30.1183 -94.1794 282° West 349 402 43,000  Level Houston Center
Sun 01:26:11 PM 30.1394 -94.2872 283° West 345 397 43,000  Level Houston Center
Sun 01:27:13 PM 30.1636 -94.4189 282° West 347 399 43,000  Level Houston Center
Sun 01:28:15 PM 30.1842 -94.5297 282° West 346 398 43,000  Level Houston Center
Sun 01:29:17 PM 30.2056 -94.6383 283° West 348 400 43,000  Level Houston Center
Sun 01:30:19 PM 30.2250 -94.7467 282° West 347 399 43,000  Level Houston Center
Sun 01:31:21 PM 30.2442 -94.8556 282° West 347 399 43,000  Level Houston Center
Sun 01:32:23 PM 30.2647 -94.9656 282° West 351 404 43,000  Level Houston Center
Sun 01:33:25 PM 30.2889 -95.0975 282° West 352 405 43,000  Level Houston Center
Sun 01:34:27 PM 30.3089 -95.2075 282° West 351 404 43,000  Level Houston Center
Sun 01:35:29 PM 30.3286 -95.3147 282° West 347 399 43,000  Level Houston Center
Sun 01:36:31 PM 30.3483 -95.4250 282° West 352 405 43,000  Level Houston Center
Sun 01:37:33 PM 30.3675 -95.5342 282° West 350 403 43,000  Level Houston Center
Sun 01:38:35 PM 30.3872 -95.6433 282° West 348 400 43,000  Level Houston Center
Sun 01:39:37 PM 30.4103 -95.7739 282° West 347 399 43,000  Level Houston Center
Sun 01:40:39 PM 30.4294 -95.8822 282° West 346 398 43,000  Level Houston Center
Sun 01:41:41 PM 30.4494 -95.9914 282° West 347 399 43,000  Level Houston Center
Sun 01:42:43 PM 30.4697 -96.1119 281° West 348 400 43,000  Level Houston Center
Sun 01:43:44 PM 30.4886 -96.2222 281° West 346 398 43,000  Level Houston Center
Sun 01:44:46 PM 30.5083 -96.3328 282° West 347 399 43,000  Level Houston Center
Sun 01:45:48 PM 30.5272 -96.4436 281° West 347 399 43,000 97 Level Houston Center
Sun 01:46:50 PM 30.5456 -96.5542 281° West 347 399 43,200 194 Climbing Houston Center
Sun 01:47:52 PM 30.5636 -96.6650 281° West 349 402 43,400 194 Climbing Houston Center
Sun 01:48:54 PM 30.5833 -96.7761 282° West 349 402 43,600 194 Climbing Houston Center
Sun 01:49:56 PM 30.6056 -96.9042 281° West 345 397 43,800 194 Climbing Houston Center
Sun 01:50:58 PM 30.6233 -97.0136 281° West 342 394 44,000 194 Climbing Houston Center
Sun 01:52:00 PM 30.6406 -97.1222 280° West 338 389 44,200 194 Climbing Houston Center
Sun 01:53:02 PM 30.6592 -97.2311 281° West 338 389 44,400 194 Climbing Houston Center
Sun 01:54:04 PM 30.6764 -97.3394 280° West 336 387 44,600 194 Climbing Houston Center
Sun 01:55:06 PM 30.6936 -97.4475 281° West 334 384 44,800 194 Climbing Houston Center
Sun 01:56:08 PM 30.7114 -97.5547 281° West 333 383 45,000 97 Climbing Houston Center
Sun 01:57:10 PM 30.7286 -97.6617 281° West 332 382 45,000  Level Houston Center
Sun 01:58:11 PM 30.7456 -97.7703 280° West 337 388 45,000  Level Houston Center
Sun 01:59:13 PM 30.7639 -97.8778 281° West 336 387 45,000  Level Houston Center
Sun 02:00:15 PM 30.7806 -97.9844 280° West 335 386 45,000  Level Houston Center
Sun 02:01:17 PM 30.8003 -98.1100 280° West 334 384 45,000  Level Houston Center
Sun 02:02:19 PM 30.8169 -98.2153 280° West 330 380 45,000  Level Houston Center
Sun 02:03:21 PM 30.8336 -98.3203 280° West 327 376 45,000  Level Houston Center
Sun 02:04:23 PM 30.8503 -98.4247 281° West 325 374 45,000  Level Houston Center
Sun 02:05:25 PM 30.8667 -98.5314 280° West 330 380 45,000  Level Houston Center
Sun 02:06:26 PM 30.8875 -98.6358 283° West 328 377 45,000  Level Houston Center
Sun 02:07:28 PM 30.9133 -98.7419 286° West 335 386 45,000  Level Houston Center
Sun 02:08:30 PM 30.9392 -98.8486 286° West 338 389 45,000  Level Houston Center
Sun 02:09:32 PM 30.9692 -98.9728 286° West 338 389 45,000  Level Houston Center
Sun 02:10:34 PM 30.9933 -99.0794 285° West 338 389 45,000  Level Houston Center
Sun 02:11:36 PM 31.0192 -99.1825 286° West 339 390 45,000  Level Houston Center
Sun 02:12:38 PM 31.0436 -99.2881 285° West 339 390 45,000  Level Houston Center
Sun 02:13:40 PM 31.0692 -99.3942 286° West 340 391 45,000  Level Houston Center
Sun 02:14:42 PM 31.0933 -99.5003 285° West 340 391 45,000  Level Houston Center
Sun 02:15:44 PM 31.1233 -99.6283 285° West 342 394 45,000  Level Houston Center
Sun 02:16:46 PM 31.1494 -99.7344 286° West 341 392 45,000  Level Houston Center
Sun 02:17:48 PM 31.1731 -99.8400 285° West 338 389 45,000  Level Houston Center
Sun 02:18:50 PM 31.1989 -99.9469 286° West 342 394 45,000  Level Houston Center
Sun 02:19:52 PM 31.2233 -100.0531 285° West 340 391 45,000  Level Houston Center
Sun 02:20:55 PM 31.2519 -100.1797 285° West 338 389 45,000  Level Houston Center
Sun 02:21:57 PM 31.2761 -100.2856 285° West 337 388 45,000  Level Houston Center
Sun 02:22:59 PM 31.3006 -100.3911 285° West 336 387 45,000  Level Houston Center
Sun 02:24:01 PM 31.3236 -100.4975 284° West 337 388 45,000  Level Houston Center
Sun 02:25:03 PM 31.3489 -100.6033 286° West 340 391 45,000  Level Houston Center
Sun 02:26:05 PM 31.3722 -100.7097 284° West 339 390 45,000  Level Houston Center
Sun 02:26:55 PM 31.3919 -100.7992 285° West 341 392 45,000  Level Fort Worth Center
Sun 02:27:56 PM 31.4211 -100.9292 285° West 345 397 45,000  Level Fort Worth Center
Sun 02:28:58 PM 31.4458 -101.0364 285° West 343 395 45,000  Level Fort Worth Center
Sun 02:30:00 PM 31.4697 -101.1450 284° West 344 396 45,000  Level Fort Worth Center
Sun 02:31:01 PM 31.4933 -101.2533 284° West 345 397 45,000  Level Fort Worth Center
Sun 02:32:03 PM 31.5167 -101.3617 284° West 344 396 45,000  Level Fort Worth Center
Sun 02:33:05 PM 31.5419 -101.4706 285° West 347 399 45,000  Level Fort Worth Center
Sun 02:34:06 PM 31.5650 -101.5797 284° West 347 399 45,000  Level Fort Worth Center
Sun 02:35:08 PM 31.5931 -101.7097 284° West 344 396 45,000  Level Fort Worth Center
Sun 02:36:10 PM 31.6164 -101.8192 284° West 347 399 45,000  Level Fort Worth Center
Sun 02:37:11 PM 31.6397 -101.9292 284° West 349 402 45,000  Level Fort Worth Center
Sun 02:38:13 PM 31.6636 -102.0389 284° West 350 403 45,000  Level Fort Worth Center
Sun 02:39:15 PM 31.6867 -102.1511 284° West 355 409 45,000  Level Fort Worth Center
Sun 02:40:17 PM 31.7139 -102.2856 283° West 357 411 45,000  Level Fort Worth Center
Sun 02:41:18 PM 31.7378 -102.3969 284° West 356 410 45,000  Level Fort Worth Center
Sun 02:42:20 PM 31.7594 -102.5083 283° West 353 406 45,000  Level Fort Worth Center
Sun 02:43:32 PM 31.7850 -102.6286 284° West 351 404 45,000  Level Albuquerque Center
Sun 02:44:33 PM 31.8075 -102.7383 284° West 348 400 45,000  Level Albuquerque Center
Sun 02:45:34 PM 31.8311 -102.8492 284° West 349 402 45,000  Level Albuquerque Center
Sun 02:46:35 PM 31.8528 -102.9581 283° West 346 398 45,000  Level Albuquerque Center
Sun 02:47:38 PM 31.8808 -103.0919 284° West 349 402 45,000  Level Albuquerque Center
Sun 02:48:40 PM 31.9036 -103.2017 284° West 348 400 45,000  Level Albuquerque Center
Sun 02:49:40 PM 31.9264 -103.3125 284° West 349 402 45,000  Level Albuquerque Center
Sun 02:50:44 PM 31.9486 -103.4233 283° West 348 400 45,000  Level Albuquerque Center
Sun 02:51:44 PM 31.9708 -103.5347 283° West 350 403 45,000  Level Albuquerque Center
Sun 02:52:46 PM 31.9931 -103.6464 283° West 351 404 45,000  Level Albuquerque Center
Sun 02:53:48 PM 32.0153 -103.7589 283° West 352 405 45,000  Level Albuquerque Center
Sun 02:54:48 PM 32.0425 -103.8944 283° West 354 407 45,000  Level Albuquerque Center
Sun 02:55:50 PM 32.0636 -104.0078 282° West 355 409 45,000  Level Albuquerque Center
Sun 02:56:51 PM 32.0875 -104.1269 283° West 357 411 45,000  Level Albuquerque Center
Sun 02:57:52 PM 32.1089 -104.2422 282° West 360 414 45,000  Level Albuquerque Center
Sun 02:58:53 PM 32.1311 -104.3561 283° West 359 413 45,000  Level Albuquerque Center
Sun 02:59:57 PM 32.1539 -104.4706 283° West 359 413 45,000  Level Albuquerque Center
Sun 03:00:59 PM 32.1756 -104.5861 283° West 361 415 45,000  Level Albuquerque Center
Sun 03:02:00 PM 32.1969 -104.7014 282° West 362 417 45,000  Level Albuquerque Center
Sun 03:03:01 PM 32.2186 -104.8181 282° West 364 419 45,000  Level Albuquerque Center
Sun 03:04:01 PM 32.2444 -104.9583 282° West 367 422 45,000  Level Albuquerque Center
Sun 03:05:05 PM 32.2675 -105.0753 283° West 367 422 45,000  Level Albuquerque Center
Sun 03:06:05 PM 32.2892 -105.1933 282° West 368 423 45,000  Level Albuquerque Center
Sun 03:07:06 PM 32.3103 -105.3100 282° West 367 422 45,000  Level Albuquerque Center
Sun 03:08:07 PM 32.3317 -105.4269 282° West 366 421 45,000  Level Albuquerque Center
Sun 03:09:10 PM 32.3533 -105.5433 282° West 365 420 45,000  Level Albuquerque Center
Sun 03:10:12 PM 32.3747 -105.6600 282° West 364 419 45,000  Level Albuquerque Center
Sun 03:11:14 PM 32.3994 -105.8000 282° West 363 418 45,000  Level Albuquerque Center
Sun 03:12:14 PM 32.4208 -105.9167 282° West 363 418 45,000  Level Albuquerque Center
Sun 03:13:17 PM 32.4408 -106.0342 281° West 364 419 45,000  Level Albuquerque Center
Sun 03:14:18 PM 32.4619 -106.1508 282° West 364 419 45,000  Level Albuquerque Center
Sun 03:15:20 PM 32.4808 -106.2589 282° West 364 419 45,000  Level Albuquerque Center
Sun 03:16:21 PM 32.5056 -106.3997 282° West 365 420 45,000  Level Albuquerque Center
Sun 03:17:22 PM 32.5264 -106.5172 282° West 364 419 45,000  Level Albuquerque Center
Sun 03:18:23 PM 32.5464 -106.6353 281° West 367 422 45,000  Level Albuquerque Center
Sun 03:19:26 PM 32.5675 -106.7525 282° West 365 420 45,000  Level Albuquerque Center
Sun 03:20:26 PM 32.5892 -106.8808 281° West 368 423 45,000  Level Albuquerque Center
Sun 03:21:27 PM 32.6092 -106.9986 281° West 367 422 45,000  Level Albuquerque Center
Sun 03:22:28 PM 32.6294 -107.1156 282° West 364 419 45,000  Level Albuquerque Center
Sun 03:23:32 PM 32.6506 -107.2439 281° West 367 422 45,000  Level Albuquerque Center
Sun 03:24:34 PM 32.6703 -107.3622 281° West 367 422 45,000  Level Albuquerque Center
Sun 03:25:35 PM 32.6889 -107.4808 281° West 366 421 45,000  Level Albuquerque Center
Sun 03:26:35 PM 32.7069 -107.5961 281° West 368 423 45,000  Level Albuquerque Center
Sun 03:27:36 PM 32.7269 -107.7150 281° West 368 423 45,000  Level Albuquerque Center
Sun 03:28:40 PM 32.7500 -107.8578 281° West 368 423 45,000  Level Albuquerque Center
Sun 03:29:40 PM 32.7692 -107.9778 281° West 370 426 45,000  Level Albuquerque Center
Sun 03:30:41 PM 32.7883 -108.0981 281° West 371 427 45,000  Level Albuquerque Center
Sun 03:31:45 PM 32.8097 -108.2242 281° West 372 428 45,000  Level Albuquerque Center
Sun 03:32:45 PM 32.8292 -108.3447 281° West 372 428 45,000  Level Albuquerque Center
Sun 03:33:48 PM 32.8483 -108.4653 281° West 372 428 45,000  Level Albuquerque Center
Sun 03:34:49 PM 32.8672 -108.5850 281° West 370 426 45,000  Level Albuquerque Center
Sun 03:35:50 PM 32.8867 -108.7064 281° West 372 428 45,000  Level Albuquerque Center
Sun 03:36:51 PM 32.9086 -108.8464 281° West 377 434 45,000  Level Albuquerque Center
Sun 03:37:53 PM 32.9272 -108.9661 281° West 372 428 45,000  Level Albuquerque Center
Sun 03:38:54 PM 32.9475 -109.0875 281° West 373 429 45,000  Level Albuquerque Center
Sun 03:39:56 PM 32.9625 -109.2028 279° West 375 432 45,000  Level Albuquerque Center
Sun 03:40:57 PM 32.9806 -109.3261 280° West 378 435 45,000  Level Albuquerque Center
Sun 03:41:57 PM 33.0003 -109.4517 281° West 383 441 45,000  Level Albuquerque Center
Sun 03:43:01 PM 33.0219 -109.6017 280° West 384 442 45,000  Level Albuquerque Center
Sun 03:44:00 PM 33.0411 -109.7247 281° West 380 437 45,000  Level Albuquerque Center
Sun 03:45:04 PM 33.0589 -109.8497 280° West 383 441 45,000  Level Albuquerque Center
Sun 03:46:05 PM 33.0778 -109.9733 280° West 380 437 45,000  Level Albuquerque Center
Sun 03:47:05 PM 33.0958 -110.0986 280° West 383 441 45,000  Level Albuquerque Center
Sun 03:48:06 PM 33.1139 -110.2231 280° West 382 440 45,000  Level Albuquerque Center
Sun 03:49:09 PM 33.1319 -110.3469 280° West 382 440 45,000  Level Albuquerque Center
Sun 03:50:11 PM 33.1497 -110.4722 280° West 383 441 45,000  Level Albuquerque Center
Sun 03:51:11 PM 33.1700 -110.6219 279° West 382 440 45,000  Level Albuquerque Center
Sun 03:52:14 PM 33.1869 -110.7389 280° West 379 436 45,000  Level Albuquerque Center
Sun 03:53:15 PM 33.2036 -110.8642 279° West 380 437 45,000  Level Albuquerque Center
Sun 03:54:16 PM 33.2219 -110.9872 280° West 378 435 45,000  Level Albuquerque Center
Sun 03:55:19 PM 33.2364 -111.1125 278° West 380 437 45,000  Level Albuquerque Center
Sun 03:56:20 PM 33.2531 -111.2364 279° West 378 435 45,000  Level Albuquerque Center
Sun 03:57:22 PM 33.2736 -111.3850 279° West 377 434 45,000  Level Albuquerque Center
Sun 03:58:23 PM 33.2894 -111.5092 279° West 378 435 45,000  Level Albuquerque Center
Sun 03:59:24 PM 33.3053 -111.6331 279° West 377 434 45,000  Level Albuquerque Center
Sun 04:00:24 PM 33.3217 -111.7589 279° West 380 437 45,000 -387 Level Albuquerque Center
Sun 04:01:28 PM 33.3378 -111.8850 279° West 382 440 44,200 -871 Descending Albuquerque Center
Sun 04:02:28 PM 33.3539 -112.0142 279° West 387 445 43,200 -992 Descending Albuquerque Center
Sun 04:03:29 PM 33.3700 -112.1447 278° West 392 451 42,200 -968 Descending Albuquerque Center
Sun 04:04:32 PM 33.3869 -112.2808 279° West 404 465 41,200 -976 Descending Albuquerque Center
Sun 04:05:32 PM 33.4042 -112.4158 279° West 408 470 40,200 -585 Descending Albuquerque Center
Sun 04:06:35 PM 33.4197 -112.5464 278° West 398 458 40,000 -97 Descending Albuquerque Center
Sun 04:07:36 PM 33.4383 -112.6950 279° West 401 461 40,000  Level Albuquerque Center
Sun 04:08:37 PM 33.4550 -112.8278 279° West 404 465 40,000 -341 Level Albuquerque Center
Sun 04:09:39 PM 33.4803 -112.9611 283° West 409 471 39,300 -829 Descending Albuquerque Center
Sun 04:10:40 PM 33.5058 -113.0967 283° West 417 480 38,300 -1,065 Descending Albuquerque Center
Sun 04:11:43 PM 33.5297 -113.2631 280° West 423 487 37,100 -1,016 Descending Albuquerque Center
Sun 04:12:44 PM 33.5458 -113.3994 278° West 419 482 36,200 -590 Descending Albuquerque Center
Sun 04:13:45 PM 33.5625 -113.5386 278° West 421 484 35,900 -639 Descending Albuquerque Center
Sun 04:14:46 PM 33.5786 -113.6772 278° West 422 486 34,900 -912 Descending Albuquerque Center
Sun 04:15:50 PM 33.5944 -113.8169 278° West 423 487 34,000 -435 Descending Albuquerque Center
Sun 04:16:50 PM 33.6131 -113.9767 278° West 431 496 34,000  Level Albuquerque Center
Sun 04:17:53 PM 33.6303 -114.1192 278° West 433 498 34,000  Level Albuquerque Center
Sun 04:18:54 PM 33.6464 -114.2728 277° West 432 497 34,000  Level Albuquerque Center
Sun 04:19:56 PM 33.6631 -114.4167 278° West 435 501 34,000  Level Albuquerque Center
Sun 04:20:38 PM 33.6739 -114.5131 278° West 439 505 34,000  Level Los Angeles Center
Sun 04:21:40 PM 33.6906 -114.6564 278° West 436 502 34,000  Level Los Angeles Center
Sun 04:22:42 PM 33.7097 -114.8272 278° West 432 497 34,000  Level Los Angeles Center
Sun 04:23:56 PM 33.7239 -114.9725 277° West 437 503 34,000  Level Los Angeles Center
Sun 04:24:59 PM 33.7428 -115.1436 278° West 433 498 34,000  Level Los Angeles Center
Sun 04:26:01 PM 33.7572 -115.2856 277° West 431 496 34,000  Level Los Angeles Center
Sun 04:27:03 PM 33.7725 -115.4300 277° West 436 502 34,000  Level Los Angeles Center
Sun 04:28:05 PM 33.7908 -115.6036 277° West 439 505 34,000  Level Los Angeles Center
Sun 04:29:07 PM 33.8036 -115.7475 276° West 434 499 34,000  Level Los Angeles Center
Sun 04:30:09 PM 33.8186 -115.8853 278° West 420 483 34,000 -629 Level Los Angeles Center
Sun 04:31:11 PM 33.8311 -116.0228 276° West 418 481 32,700 -2,032 Descending Los Angeles Center
Sun 04:32:13 PM 33.8450 -116.1592 277° West 415 478 29,800 -2,832 Descending Los Angeles Center
Sun 04:33:16 PM 33.8578 -116.2983 276° West 420 483 26,800 -3,072 Descending Los Angeles Center
Sun 04:34:18 PM 33.8714 -116.4594 276° West 410 472 23,400 -3,145 Descending Los Angeles Center
Sun 04:35:20 PM 33.8786 -116.5878 274° West 394 453 20,300 -2,903 Descending Los Angeles Center
Sun 04:36:22 PM 33.8836 -116.7125 273° West 381 438 17,400 -3,000 Descending Los Angeles Center
Sun 04:37:24 PM 33.8900 -116.8344 274° West 373 429 14,100 -2,194 Descending Los Angeles Center
Sun 04:37:55 PM 33.8833 -116.9000 263° West 359 413 14,000 -581 Descending Southern California TRACON
Sun 04:38:26 PM 33.8744 -116.9514 258° West 361 415 13,500 -1,097 Descending Los Angeles Center
Sun 04:39:28 PM 33.8531 -117.0931 260° West 359 413 12,300 -1,016 Descending Los Angeles Center
Sun 04:40:30 PM 33.8367 -117.2078 260° West 354 407 11,400 -871 Descending Los Angeles Center
Sun 04:41:32 PM 33.8217 -117.3122 260° West 326 375 10,500 -871 Descending Los Angeles Center
Sun 04:42:34 PM 33.8069 -117.4042 259° West 288 331 9,600 -816 Descending Los Angeles Center
Sun 04:43:37 PM 33.7939 -117.4981 261° West 287 330 8,800 -816 Descending Los Angeles Center
Sun 04:44:39 PM 33.7858 -117.5769 263° West 259 298 7,900 -968 Descending Los Angeles Center
Sun 04:45:41 PM 33.8036 -117.6508 286° West 209 241 6,800 -1,065 Descending Los Angeles Center
Sun 04:46:43 PM 33.8286 -117.7042 299° West 192 221 5,700 -1,113 Descending Los Angeles Center
Sun 04:47:45 PM 33.8136 -117.7600 252° West 183 211 4,500 -1,258 Descending Los Angeles Center
Sun 04:48:47 PM 33.7822 -117.8022 228° Southwest 171 197 3,100 -1,258 Descending Los Angeles Center
Sun 04:49:49 PM 33.7417 -117.8267 207° Southwest 164 189 1,900 -1,113 Descending Los Angeles Center
Sun 04:50:51 PM 33.7022 -117.8517 208° Southwest 148 170 800 -823 Descending Los Angeles Center
Sun 04:51:53 PM 33.6764 -117.8681 208° Southwest 139 160 200 -581 Descending Los Angeles Center
Sun 04:53:00 PM 33.6757 -117.8682 132° Southeast  Level Estimated
Sun 05:00:00 PM 33.6757 -117.8682 132° Southeast  Level Estimated

Login

Don't have an account? Register now (free) for customized features, flight alerts, and more!